Time;durP1;ratioP1;P1;durP2;ratioP2;P2;SDS_P1;SDS_P2;PMS_P1;PMS_P2;Temp;Humidity;BMP_temperature;BMP_pressure;BME280_temperature;BME280_humidity;BME280_pressure;Samples;Min_cycle;Max_cycle;Signal;HPM_P1;HPM_P2
2022/08/09 00:01:30;;;;;;;3.25;2.47;;;;;;;;;;5039494;28;20127;-69
2022/08/09 00:03:55;;;;;;;2.60;2.40;;;;;;;;;;5040377;28;20040;-69
2022/08/09 00:06:20;;;;;;;3.33;2.20;;;;;;;;;;5039936;28;20098;-70
2022/08/09 00:08:47;;;;;;;2.20;1.98;;;;;;;;;;5040325;28;20594;-70
2022/08/09 00:11:13;;;;;;;2.75;2.15;;;;;;;;;;5039512;28;20519;-70
2022/08/09 00:13:39;;;;;;;3.38;2.30;;;;;;;;;;5040124;28;20106;-70
2022/08/09 00:16:04;;;;;;;2.67;2.40;;;;;;;;;;5039743;28;20084;-68
2022/08/09 00:18:30;;;;;;;3.00;2.25;;;;;;;;;;5038325;28;20053;-70
2022/08/09 00:20:56;;;;;;;2.72;2.10;;;;;;;;;;5038372;28;20049;-69
2022/08/09 00:23:21;;;;;;;3.03;1.90;;;;;;;;;;5039625;28;20098;-69
2022/08/09 00:25:47;;;;;;;3.75;2.08;;;;;;;;;;5039874;28;20041;-70
2022/08/09 00:28:12;;;;;;;4.53;2.22;;;;;;;;;;5040180;28;20139;-69
2022/08/09 00:30:37;;;;;;;3.00;1.70;;;;;;;;;;5039293;28;20045;-70
2022/08/09 00:33:04;;;;;;;2.00;1.90;;;;;;;;;;5039338;28;20051;-70
2022/08/09 00:35:29;;;;;;;6.00;1.90;;;;;;;;;;5039211;28;20080;-70
2022/08/09 00:37:54;;;;;;;2.45;2.20;;;;;;;;;;5038528;28;20076;-70
2022/08/09 00:40:20;;;;;;;4.13;2.58;;;;;;;;;;5039163;28;20056;-69
2022/08/09 00:42:45;;;;;;;2.47;2.20;;;;;;;;;;5038172;28;20049;-69
2022/08/09 00:45:11;;;;;;;2.92;2.40;;;;;;;;;;5037427;28;20136;-69
2022/08/09 00:47:36;;;;;;;2.70;2.50;;;;;;;;;;5039967;28;20136;-70
2022/08/09 00:50:02;;;;;;;2.95;2.15;;;;;;;;;;5039575;28;20049;-70
2022/08/09 00:52:29;;;;;;;2.92;2.30;;;;;;;;;;5037845;28;20147;-69
2022/08/09 00:54:56;;;;;;;3.38;2.33;;;;;;;;;;5039132;28;20083;-70
2022/08/09 00:57:21;;;;;;;2.88;2.30;;;;;;;;;;5039942;28;20052;-69
2022/08/09 00:59:48;;;;;;;5.50;2.30;;;;;;;;;;5039740;28;20044;-68
2022/08/09 01:02:19;;;;;;;6.47;2.40;;;;;;;;;;5038365;28;20049;-69
2022/08/09 01:04:45;;;;;;;3.33;2.42;;;;;;;;;;5039636;28;20102;-70
2022/08/09 01:07:18;;;;;;;2.45;2.33;;;;;;;;;;5038193;28;20371;-69
2022/08/09 01:09:52;;;;;;;3.38;2.90;;;;;;;;;;5040274;28;20056;-69
2022/08/09 01:12:33;;;;;;;4.63;2.47;;;;;;;;;;5039226;28;20148;-69
2022/08/09 01:15:03;;;;;;;6.97;2.72;;;;;;;;;;5039481;28;20130;-70
2022/08/09 01:17:32;;;;;;;5.25;3.10;;;;;;;;;;5038516;28;20472;-68
2022/08/09 01:20:07;;;;;;;3.75;3.03;;;;;;;;;;5039342;28;20049;-70
2022/08/09 01:23:09;;;;;;;3.95;2.90;;;;;;;;;;5038956;28;20072;-69
2022/08/09 01:25:34;;;;;;;;;;;;;;;;;;5040009;28;20509;-70
2022/08/09 01:28:01;;;;;;;5.03;3.30;;;;;;;;;;5038441;28;20062;-69
2022/08/09 01:30:30;;;;;;;7.53;3.03;;;;;;;;;;5038866;28;20045;-70
2022/08/09 01:32:57;;;;;;;4.43;3.70;;;;;;;;;;5037752;28;20068;-70
2022/08/09 01:35:28;;;;;;;3.38;3.10;;;;;;;;;;5038139;28;20068;-70
2022/08/09 01:38:07;;;;;;;4.40;3.40;;;;;;;;;;5039553;28;20045;-70
2022/08/09 01:40:34;;;;;;;4.95;2.80;;;;;;;;;;5038597;28;20055;-69
2022/08/09 01:43:01;;;;;;;3.10;2.90;;;;;;;;;;5039012;28;20144;-70
2022/08/09 01:45:28;;;;;;;3.33;2.83;;;;;;;;;;5037411;28;20140;-69
2022/08/09 01:47:57;;;;;;;3.20;2.90;;;;;;;;;;5041355;28;20094;-70
2022/08/09 01:50:24;;;;;;;3.00;2.70;;;;;;;;;;5039993;28;20045;-70
2022/08/09 01:52:50;;;;;;;3.10;2.50;;;;;;;;;;5042929;28;20068;-70
2022/08/09 01:55:17;;;;;;;2.90;2.70;;;;;;;;;;5038801;28;20102;-70
2022/08/09 01:57:46;;;;;;;3.22;2.40;;;;;;;;;;5042166;28;21199;-69
2022/08/09 02:00:13;;;;;;;3.08;2.80;;;;;;;;;;5042042;28;20593;-69
2022/08/09 02:02:42;;;;;;;3.20;2.50;;;;;;;;;;5042417;28;20059;-70
2022/08/09 02:05:09;;;;;;;3.72;2.78;;;;;;;;;;5042272;28;20053;-69
2022/08/09 02:07:42;;;;;;;2.65;2.30;;;;;;;;;;5042268;28;20148;-70
2022/08/09 02:10:20;;;;;;;3.13;2.53;;;;;;;;;;5042571;28;20672;-71
2022/08/09 02:12:46;;;;;;;3.10;2.88;;;;;;;;;;5041593;28;20468;-70
2022/08/09 02:15:16;;;;;;;3.78;3.05;;;;;;;;;;5041909;28;20787;-73
2022/08/09 02:17:48;;;;;;;3.67;3.30;;;;;;;;;;5042398;28;20045;-72
2022/08/09 02:20:14;;;;;;;3.30;2.95;;;;;;;;;;5043519;28;20049;-72
2022/08/09 02:22:50;;;;;;;3.80;3.00;;;;;;;;;;5041051;28;20044;-69
2022/08/09 02:25:34;;;;;;;4.10;3.45;;;;;;;;;;5042000;28;20139;-71
2022/08/09 02:28:12;;;;;;;3.97;3.58;;;;;;;;;;5043863;28;20102;-71
2022/08/09 02:30:45;;;;;;;6.88;3.40;;;;;;;;;;5043946;28;20049;-71
2022/08/09 02:33:15;;;;;;;4.47;3.10;;;;;;;;;;5043777;28;20052;-70
2022/08/09 02:35:42;;;;;;;3.70;3.42;;;;;;;;;;5043327;28;20041;-70
2022/08/09 02:38:10;;;;;;;3.20;3.00;;;;;;;;;;5044953;28;20049;-70
2022/08/09 02:40:38;;;;;;;4.65;3.70;;;;;;;;;;5044235;28;20407;-70
2022/08/09 02:43:05;;;;;;;3.88;3.03;;;;;;;;;;5044270;28;20149;-71
2022/08/09 02:45:33;;;;;;;3.25;2.90;;;;;;;;;;5043604;28;20589;-70
2022/08/09 02:48:08;;;;;;;3.97;3.15;;;;;;;;;;5044197;28;20033;-70
2022/08/09 02:50:43;;;;;;;3.67;2.97;;;;;;;;;;5043245;28;20045;-70
2022/08/09 02:53:13;;;;;;;6.47;3.20;;;;;;;;;;5043903;28;20041;-70
2022/08/09 02:55:39;;;;;;;4.80;3.28;;;;;;;;;;5043395;28;20037;-70
2022/08/09 02:58:08;;;;;;;3.53;3.22;;;;;;;;;;5043352;28;20053;-70
2022/08/09 03:00:35;;;;;;;4.68;3.20;;;;;;;;;;5042571;28;20033;-70
2022/08/09 03:03:04;;;;;;;4.65;3.10;;;;;;;;;;5042178;28;20136;-70
2022/08/09 03:05:31;;;;;;;4.82;3.20;;;;;;;;;;5041979;28;20098;-70
2022/08/09 03:07:58;;;;;;;3.95;3.53;;;;;;;;;;5041183;28;20052;-70
2022/08/09 03:10:25;;;;;;;3.65;3.35;;;;;;;;;;5040556;28;20068;-70
2022/08/09 03:12:51;;;;;;;3.50;3.20;;;;;;;;;;5041041;28;20123;-70
2022/08/09 03:15:19;;;;;;;5.80;3.00;;;;;;;;;;5041683;28;20415;-70
2022/08/09 03:17:45;;;;;;;3.60;3.30;;;;;;;;;;5041064;28;20045;-70
2022/08/09 03:20:11;;;;;;;8.98;3.75;;;;;;;;;;5040414;28;20092;-70
2022/08/09 03:22:39;;;;;;;4.95;3.45;;;;;;;;;;5041685;28;20053;-70
2022/08/09 03:25:06;;;;;;;5.63;3.83;;;;;;;;;;5041635;28;20578;-70
2022/08/09 03:27:33;;;;;;;4.50;3.60;;;;;;;;;;5040867;28;20057;-70
2022/08/09 03:30:00;;;;;;;4.07;3.55;;;;;;;;;;5040592;28;20052;-70
2022/08/09 03:32:28;;;;;;;3.95;3.33;;;;;;;;;;5039754;28;20051;-70
2022/08/09 03:34:55;;;;;;;3.83;3.53;;;;;;;;;;5040909;28;20060;-70
2022/08/09 03:37:21;;;;;;;4.28;3.70;;;;;;;;;;5041415;28;20142;-70
2022/08/09 03:39:47;;;;;;;4.05;3.60;;;;;;;;;;5040910;28;20091;-71
2022/08/09 03:42:13;;;;;;;4.13;3.75;;;;;;;;;;5039994;28;20053;-70
2022/08/09 03:44:38;;;;;;;5.47;4.40;;;;;;;;;;5040752;28;20063;-71
2022/08/09 03:47:04;;;;;;;9.48;4.10;;;;;;;;;;5040901;28;20049;-70
2022/08/09 03:49:30;;;;;;;5.20;4.30;;;;;;;;;;5041306;28;20049;-70
2022/08/09 03:51:57;;;;;;;7.22;4.05;;;;;;;;;;5040237;28;20048;-70
2022/08/09 03:54:25;;;;;;;4.75;4.32;;;;;;;;;;5039904;28;20068;-71
2022/08/09 03:56:53;;;;;;;7.20;4.20;;;;;;;;;;5038516;28;20594;-71
2022/08/09 03:59:18;;;;;;;4.97;4.00;;;;;;;;;;5040920;28;20055;-71
2022/08/09 04:01:44;;;;;;;5.18;4.10;;;;;;;;;;5042273;28;20045;-71
2022/08/09 04:04:11;;;;;;;5.00;4.43;;;;;;;;;;5043285;28;20136;-71
2022/08/09 04:06:37;;;;;;;6.28;4.20;;;;;;;;;;5042003;28;20056;-71
2022/08/09 04:09:05;;;;;;;5.53;4.60;;;;;;;;;;5040200;28;20049;-71
2022/08/09 04:11:45;;;;;;;5.90;5.15;;;;;;;;;;5042506;28;20132;-71
2022/08/09 04:14:11;;;;;;;4.88;4.30;;;;;;;;;;5041128;28;20037;-71
2022/08/09 04:16:37;;;;;;;5.53;4.05;;;;;;;;;;5040051;28;20415;-71
2022/08/09 04:19:03;;;;;;;5.93;4.57;;;;;;;;;;5043379;28;20053;-71
2022/08/09 04:21:28;;;;;;;5.35;4.28;;;;;;;;;;5042658;28;20041;-71
2022/08/09 04:23:53;;;;;;;4.53;4.10;;;;;;;;;;5041207;28;20036;-71
2022/08/09 04:26:19;;;;;;;7.28;4.40;;;;;;;;;;5041552;28;20041;-72
2022/08/09 04:28:44;;;;;;;8.45;4.82;;;;;;;;;;5044474;28;20413;-71
2022/08/09 04:31:10;;;;;;;5.90;4.03;;;;;;;;;;5044588;28;20037;-71
2022/08/09 04:33:39;;;;;;;4.85;4.45;;;;;;;;;;5042929;28;20441;-71
2022/08/09 04:36:04;;;;;;;5.95;4.32;;;;;;;;;;5040509;28;20079;-71
2022/08/09 04:38:30;;;;;;;4.53;4.13;;;;;;;;;;5041340;28;20044;-71
2022/08/09 04:40:57;;;;;;;4.53;4.13;;;;;;;;;;5043165;28;20064;-71
2022/08/09 04:43:22;;;;;;;4.68;4.10;;;;;;;;;;5042316;28;20037;-71
2022/08/09 04:45:47;;;;;;;5.05;4.22;;;;;;;;;;5042582;28;20095;-71
2022/08/09 04:48:13;;;;;;;4.25;3.85;;;;;;;;;;5043680;28;20044;-71
2022/08/09 04:50:41;;;;;;;6.13;4.80;;;;;;;;;;5042480;28;20049;-71
2022/08/09 04:53:07;;;;;;;7.18;4.30;;;;;;;;;;5043838;28;20057;-71
2022/08/09 04:55:33;;;;;;;8.32;4.15;;;;;;;;;;5042354;28;20796;-71
2022/08/09 04:57:59;;;;;;;7.57;4.20;;;;;;;;;;5044676;28;20656;-71
2022/08/09 05:00:24;;;;;;;4.70;4.30;;;;;;;;;;5044060;28;20044;-72
2022/08/09 05:02:50;;;;;;;5.28;4.05;;;;;;;;;;5045119;28;20048;-71
2022/08/09 05:05:15;;;;;;;6.43;4.40;;;;;;;;;;5044314;28;20076;-71
2022/08/09 05:07:41;;;;;;;4.72;4.10;;;;;;;;;;5045486;28;20578;-71
2022/08/09 05:10:07;;;;;;;4.57;4.05;;;;;;;;;;5045326;28;20056;-71
2022/08/09 05:12:33;;;;;;;5.38;4.18;;;;;;;;;;5044548;28;21125;-71
2022/08/09 05:14:58;;;;;;;5.32;3.72;;;;;;;;;;5043779;28;20115;-71
2022/08/09 05:17:24;;;;;;;6.68;3.70;;;;;;;;;;5042279;28;20036;-71
2022/08/09 05:19:49;;;;;;;5.18;3.75;;;;;;;;;;5042834;28;20052;-72
2022/08/09 05:22:15;;;;;;;9.70;3.38;;;;;;;;;;5042826;28;20057;-72
2022/08/09 05:24:40;;;;;;;3.22;2.95;;;;;;;;;;5044357;28;20053;-72
2022/08/09 05:27:06;;;;;;;3.72;3.28;;;;;;;;;;5043556;28;20106;-72
2022/08/09 05:29:32;;;;;;;3.75;2.92;;;;;;;;;;5042899;28;20044;-72
2022/08/09 05:32:00;;;;;;;3.33;3.03;;;;;;;;;;5042451;28;20037;-72
2022/08/09 05:34:28;;;;;;;3.42;3.10;;;;;;;;;;5042563;28;20056;-71
2022/08/09 05:36:55;;;;;;;4.55;2.83;;;;;;;;;;5043165;28;20049;-72
2022/08/09 05:39:21;;;;;;;4.00;2.70;;;;;;;;;;5042662;28;20094;-72
2022/08/09 05:41:47;;;;;;;3.40;3.05;;;;;;;;;;5040234;28;20049;-72
2022/08/09 05:44:12;;;;;;;3.08;2.60;;;;;;;;;;5043193;28;20795;-73
2022/08/09 05:46:37;;;;;;;5.90;2.90;;;;;;;;;;5042133;28;20087;-72
2022/08/09 05:49:03;;;;;;;3.20;2.83;;;;;;;;;;5044063;28;20052;-72
2022/08/09 05:51:28;;;;;;;3.15;2.85;;;;;;;;;;5045884;28;20045;-71
2022/08/09 05:53:54;;;;;;;3.10;2.80;;;;;;;;;;5047047;28;20041;-70
2022/08/09 05:56:20;;;;;;;3.03;2.70;;;;;;;;;;5042407;28;20055;-72
2022/08/09 05:58:45;;;;;;;5.07;3.28;;;;;;;;;;5044965;28;20458;-72
2022/08/09 06:01:11;;;;;;;2.92;2.63;;;;;;;;;;5045305;28;20491;-71
2022/08/09 06:03:36;;;;;;;4.85;2.72;;;;;;;;;;5044674;28;20091;-71
2022/08/09 06:06:02;;;;;;;3.80;2.97;;;;;;;;;;5042673;28;20052;-70
2022/08/09 06:08:27;;;;;;;4.53;2.70;;;;;;;;;;5043231;28;20048;-70
2022/08/09 06:10:54;;;;;;;3.28;2.67;;;;;;;;;;5044577;28;20049;-71
2022/08/09 06:13:20;;;;;;;3.08;2.80;;;;;;;;;;5043683;28;20048;-70
2022/08/09 06:15:45;;;;;;;3.30;2.72;;;;;;;;;;5044094;28;20090;-71
2022/08/09 06:18:11;;;;;;;3.28;2.97;;;;;;;;;;5043343;28;20641;-71
2022/08/09 06:20:36;;;;;;;4.70;2.67;;;;;;;;;;5040687;28;20046;-71
2022/08/09 06:23:02;;;;;;;4.47;3.00;;;;;;;;;;5042704;28;20052;-73
2022/08/09 06:25:27;;;;;;;3.13;2.80;;;;;;;;;;5041860;28;20523;-73
2022/08/09 06:27:53;;;;;;;3.22;2.90;;;;;;;;;;5041330;28;20048;-71
2022/08/09 06:30:18;;;;;;;6.43;2.92;;;;;;;;;;5041832;28;20037;-70
2022/08/09 06:32:44;;;;;;;7.00;2.75;;;;;;;;;;5042595;28;20099;-71
2022/08/09 06:35:10;;;;;;;3.47;3.03;;;;;;;;;;5041187;28;20051;-71
2022/08/09 06:37:37;;;;;;;4.88;2.70;;;;;;;;;;5044046;28;20069;-71
2022/08/09 06:40:03;;;;;;;4.57;2.63;;;;;;;;;;5038156;28;20040;-71
2022/08/09 06:42:29;;;;;;;2.85;2.60;;;;;;;;;;5039876;28;20045;-72
2022/08/09 06:44:55;;;;;;;2.72;2.53;;;;;;;;;;5042166;28;20122;-72
2022/08/09 06:47:21;;;;;;;3.17;2.58;;;;;;;;;;5041342;28;20135;-71
2022/08/09 06:49:47;;;;;;;3.53;2.30;;;;;;;;;;5042003;28;20040;-71
2022/08/09 06:52:13;;;;;;;5.13;2.60;;;;;;;;;;5041202;28;20052;-71
2022/08/09 06:54:38;;;;;;;3.83;2.40;;;;;;;;;;5040872;28;20064;-71
2022/08/09 06:57:04;;;;;;;4.53;2.33;;;;;;;;;;5041701;28;20456;-71
2022/08/09 06:59:29;;;;;;;4.40;2.80;;;;;;;;;;5043848;28;20155;-71
2022/08/09 07:01:55;;;;;;;6.22;2.67;;;;;;;;;;5039118;28;20036;-71
2022/08/09 07:04:20;;;;;;;5.53;2.50;;;;;;;;;;5042006;28;20051;-71
2022/08/09 07:06:46;;;;;;;3.08;2.60;;;;;;;;;;5042237;28;20041;-71
2022/08/09 07:09:11;;;;;;;4.95;2.63;;;;;;;;;;5045426;28;20132;-71
2022/08/09 07:11:37;;;;;;;4.90;2.60;;;;;;;;;;5043681;28;20052;-71
2022/08/09 07:14:03;;;;;;;6.50;2.53;;;;;;;;;;5045239;28;20041;-71
2022/08/09 07:16:29;;;;;;;5.13;2.65;;;;;;;;;;5044436;28;20041;-71
2022/08/09 07:18:54;;;;;;;3.28;2.72;;;;;;;;;;5045074;28;20049;-71
2022/08/09 07:21:20;;;;;;;2.85;2.50;;;;;;;;;;5045436;28;20044;-71
2022/08/09 07:23:45;;;;;;;5.03;2.65;;;;;;;;;;5042705;28;20049;-71
2022/08/09 07:26:11;;;;;;;4.93;2.42;;;;;;;;;;5044422;28;20052;-70
2022/08/09 07:28:36;;;;;;;2.58;2.35;;;;;;;;;;5040921;28;20292;-70
2022/08/09 07:31:03;;;;;;;2.42;2.22;;;;;;;;;;5041564;28;20444;-71
2022/08/09 07:33:30;;;;;;;2.67;2.40;;;;;;;;;;5042064;28;20045;-71
2022/08/09 07:35:55;;;;;;;2.58;2.20;;;;;;;;;;5042499;28;21177;-71
2022/08/09 07:38:21;;;;;;;2.65;2.22;;;;;;;;;;5039444;28;20056;-71
2022/08/09 07:40:46;;;;;;;2.35;2.10;;;;;;;;;;5041349;28;21162;-71
2022/08/09 07:43:11;;;;;;;3.13;1.90;;;;;;;;;;5041571;28;20582;-72
2022/08/09 07:45:37;;;;;;;14.15;3.38;;;;;;;;;;5042200;28;20037;-71
2022/08/09 07:48:03;;;;;;;3.50;2.25;;;;;;;;;;5042774;28;20076;-71
2022/08/09 07:50:28;;;;;;;8.85;2.40;;;;;;;;;;5042028;28;20045;-71
2022/08/09 07:52:54;;;;;;;2.88;2.20;;;;;;;;;;5041741;28;20056;-72
2022/08/09 07:55:20;;;;;;;3.75;2.40;;;;;;;;;;5042016;28;20072;-70
2022/08/09 07:57:47;;;;;;;4.30;2.35;;;;;;;;;;5041717;28;20834;-70
2022/08/09 08:00:19;;;;;;;3.78;1.95;;;;;;;;;;5030790;28;20127;-70
2022/08/09 08:02:45;;;;;;;2.15;2.00;;;;;;;;;;5041018;28;20076;-71
2022/08/09 08:05:11;;;;;;;3.72;1.85;;;;;;;;;;5039546;28;20068;-71
2022/08/09 08:07:37;;;;;;;5.28;1.92;;;;;;;;;;5042589;28;20040;-69
2022/08/09 08:10:05;;;;;;;7.43;2.10;;;;;;;;;;5043150;28;20052;-70
2022/08/09 08:12:30;;;;;;;4.20;2.05;;;;;;;;;;5041829;28;20465;-69
2022/08/09 08:14:56;;;;;;;2.85;1.80;;;;;;;;;;5041206;28;20048;-71
2022/08/09 08:17:22;;;;;;;3.35;2.08;;;;;;;;;;5040494;28;20123;-70
2022/08/09 08:19:50;;;;;;;4.07;2.05;;;;;;;;;;5043027;28;20045;-71
2022/08/09 08:22:16;;;;;;;7.95;1.98;;;;;;;;;;5042895;28;20148;-70
2022/08/09 08:24:41;;;;;;;6.05;2.28;;;;;;;;;;5041896;28;20123;-71
2022/08/09 08:27:07;;;;;;;3.40;1.98;;;;;;;;;;5041557;28;20049;-71
2022/08/09 08:29:33;;;;;;;5.55;1.90;;;;;;;;;;5041367;28;20051;-72
2022/08/09 08:31:58;;;;;;;4.63;2.20;;;;;;;;;;5041678;28;20049;-71
2022/08/09 08:34:23;;;;;;;5.15;1.90;;;;;;;;;;5042507;28;20052;-71
2022/08/09 08:36:49;;;;;;;5.55;1.60;;;;;;;;;;5040821;28;20072;-70
2022/08/09 08:39:14;;;;;;;3.97;1.55;;;;;;;;;;5041777;28;20068;-71
2022/08/09 08:41:40;;;;;;;3.72;1.60;;;;;;;;;;5041561;28;20102;-71
2022/08/09 08:44:07;;;;;;;2.85;1.50;;;;;;;;;;5041237;28;20052;-71
2022/08/09 08:46:37;;;;;;;6.22;1.38;;;;;;;;;;5039604;28;20045;-71
2022/08/09 08:49:04;;;;;;;3.05;1.70;;;;;;;;;;5039815;28;20464;-70
2022/08/09 08:51:30;;;;;;;4.40;1.40;;;;;;;;;;5040135;28;20132;-70
2022/08/09 08:53:56;;;;;;;1.85;1.30;;;;;;;;;;5039268;28;20132;-70
2022/08/09 08:56:22;;;;;;;5.45;1.52;;;;;;;;;;5044040;28;20194;-71
2022/08/09 08:58:47;;;;;;;3.28;1.60;;;;;;;;;;5037549;28;20128;-70
2022/08/09 09:01:15;;;;;;;3.78;1.50;;;;;;;;;;5039340;28;20531;-70
2022/08/09 09:03:41;;;;;;;2.55;1.60;;;;;;;;;;5022797;28;20038;-70
2022/08/09 09:06:09;;;;;;;10.82;1.55;;;;;;;;;;5021785;28;20045;-70
2022/08/09 09:08:38;;;;;;;4.88;1.65;;;;;;;;;;5021792;28;20045;-70
2022/08/09 09:11:05;;;;;;;2.50;1.30;;;;;;;;;;4998636;28;20051;-71
2022/08/09 09:13:36;;;;;;;2.22;1.38;;;;;;;;;;4979279;28;20053;-70
2022/08/09 09:16:01;;;;;;;4.20;1.33;;;;;;;;;;4977654;28;20416;-70
2022/08/09 09:18:27;;;;;;;5.88;1.50;;;;;;;;;;4963191;28;20039;-70
2022/08/09 09:20:53;;;;;;;5.47;1.58;;;;;;;;;;4966418;28;20047;-69
2022/08/09 09:23:39;;;;;;;2.53;1.40;;;;;;;;;;4971691;28;20045;-70
2022/08/09 09:26:04;;;;;;;1.60;1.30;;;;;;;;;;4984472;28;20078;-70
2022/08/09 09:28:34;;;;;;;2.05;1.50;;;;;;;;;;4967611;28;20066;-70
2022/08/09 09:31:00;;;;;;;1.67;1.30;;;;;;;;;;4950332;28;20402;-70
2022/08/09 09:33:34;;;;;;;7.40;1.90;;;;;;;;;;4943752;28;20054;-70
2022/08/09 09:36:01;;;;;;;2.08;1.40;;;;;;;;;;4947968;28;20142;-70
2022/08/09 09:38:46;;;;;;;5.93;1.60;;;;;;;;;;4953616;28;20233;-71
2022/08/09 09:41:26;;;;;;;4.35;1.85;;;;;;;;;;4957241;28;20055;-70
2022/08/09 09:43:56;;;;;;;4.97;1.67;;;;;;;;;;4951129;28;20051;-70
2022/08/09 09:46:35;;;;;;;2.60;1.48;;;;;;;;;;4957303;28;20055;-70
2022/08/09 09:49:07;;;;;;;5.63;1.98;;;;;;;;;;4964164;28;20057;-69
2022/08/09 09:51:34;;;;;;;3.70;1.65;;;;;;;;;;4993316;28;20054;-70
2022/08/09 09:54:10;;;;;;;5.03;1.80;;;;;;;;;;4992388;28;20050;-70
2022/08/09 09:56:39;;;;;;;3.97;2.03;;;;;;;;;;5042181;28;20120;-70
2022/08/09 09:59:06;;;;;;;3.47;1.80;;;;;;;;;;5043981;28;20053;-69
2022/08/09 10:01:32;;;;;;;3.92;1.95;;;;;;;;;;5043051;28;20040;-69
2022/08/09 10:03:58;;;;;;;3.95;1.80;;;;;;;;;;5042679;28;20045;-70
2022/08/09 10:06:24;;;;;;;4.72;1.98;;;;;;;;;;5042490;28;20063;-69
2022/08/09 10:08:57;;;;;;;5.07;1.75;;;;;;;;;;5043089;28;20110;-70
2022/08/09 10:11:25;;;;;;;6.05;1.90;;;;;;;;;;5043213;28;20179;-70
2022/08/09 10:13:52;;;;;;;5.50;1.90;;;;;;;;;;5043088;28;20048;-70
2022/08/09 10:16:32;;;;;;;7.22;1.85;;;;;;;;;;5042751;28;20048;-70
2022/08/09 10:19:00;;;;;;;5.63;1.90;;;;;;;;;;5024645;28;20047;-70
2022/08/09 10:21:26;;;;;;;3.75;1.70;;;;;;;;;;5041604;28;20063;-70
2022/08/09 10:23:53;;;;;;;3.30;1.48;;;;;;;;;;5042275;28;20514;-69
2022/08/09 10:26:20;;;;;;;5.25;1.98;;;;;;;;;;5042443;28;20928;-70
2022/08/09 10:28:46;;;;;;;3.17;1.50;;;;;;;;;;5043824;28;20041;-70
2022/08/09 10:31:13;;;;;;;2.95;1.65;;;;;;;;;;5042848;28;20049;-70
2022/08/09 10:33:39;;;;;;;3.75;1.70;;;;;;;;;;5042564;28;20099;-70
2022/08/09 10:36:07;;;;;;;5.35;1.83;;;;;;;;;;5041286;28;20060;-70
2022/08/09 10:38:34;;;;;;;2.47;1.80;;;;;;;;;;5042516;28;20069;-70
2022/08/09 10:41:00;;;;;;;4.30;1.52;;;;;;;;;;5042104;28;20048;-70
2022/08/09 10:43:30;;;;;;;5.88;1.65;;;;;;;;;;5046772;28;20043;-72
2022/08/09 10:46:01;;;;;;;4.88;1.50;;;;;;;;;;5040131;28;20044;-71
2022/08/09 10:48:32;;;;;;;5.10;1.55;;;;;;;;;;5040668;28;20048;-71
2022/08/09 10:51:23;;;;;;;2.97;1.50;;;;;;;;;;5042465;28;20083;-71
2022/08/09 10:54:06;;;;;;;4.10;1.30;;;;;;;;;;5015376;28;20041;-70
2022/08/09 10:56:33;;;;;;;6.47;1.60;;;;;;;;;;5040696;28;20192;-70
2022/08/09 10:59:02;;;;;;;1.98;1.38;;;;;;;;;;5041312;28;20459;-70
2022/08/09 11:01:30;;;;;;;10.38;1.50;;;;;;;;;;5042084;28;20048;-70
2022/08/09 11:04:07;;;;;;;3.67;1.55;;;;;;;;;;5041577;28;20470;-70
2022/08/09 11:06:36;;;;;;;3.17;1.30;;;;;;;;;;5039931;28;20041;-70
2022/08/09 11:09:02;;;;;;;1.85;1.15;;;;;;;;;;5041959;28;20126;-70
2022/08/09 11:11:53;;;;;;;3.28;1.15;;;;;;;;;;5039656;28;20057;-70
2022/08/09 11:14:37;;;;;;;2.03;1.20;;;;;;;;;;5039815;28;20064;-71
2022/08/09 11:17:23;;;;;;;3.70;1.40;;;;;;;;;;5038704;28;20048;-70
2022/08/09 11:19:53;;;;;;;3.22;1.58;;;;;;;;;;5040374;28;20041;-70
2022/08/09 11:22:45;;;;;;;3.22;1.48;;;;;;;;;;5041075;28;20172;-70
2022/08/09 11:25:15;;;;;;;3.35;1.40;;;;;;;;;;5038814;28;20045;-70
2022/08/09 11:27:46;;;;;;;3.10;1.30;;;;;;;;;;5041412;28;20068;-71
2022/08/09 11:30:20;;;;;;;5.07;1.50;;;;;;;;;;5040866;28;20495;-70
2022/08/09 11:32:56;;;;;;;2.53;1.30;;;;;;;;;;5038831;28;20131;-71
2022/08/09 11:35:21;;;;;;;2.20;1.50;;;;;;;;;;5041113;28;20184;-72
2022/08/09 11:37:49;;;;;;;2.72;1.30;;;;;;;;;;5038460;28;20152;-71
2022/08/09 11:40:26;;;;;;;1.42;1.10;;;;;;;;;;5028007;28;20143;-71
2022/08/09 11:42:53;;;;;;;1.55;1.20;;;;;;;;;;5023423;28;20044;-71
2022/08/09 11:45:20;;;;;;;2.30;1.20;;;;;;;;;;5041007;28;20056;-71
2022/08/09 11:47:47;;;;;;;1.50;1.40;;;;;;;;;;5040887;28;20111;-71
2022/08/09 11:50:13;;;;;;;3.67;1.10;;;;;;;;;;5040803;28;20040;-72
2022/08/09 11:52:57;;;;;;;2.08;1.33;;;;;;;;;;5040352;28;20072;-71
2022/08/09 11:55:38;;;;;;;2.13;1.50;;;;;;;;;;5040612;28;20052;-72
2022/08/09 11:58:27;;;;;;;1.25;1.00;;;;;;;;;;5039451;28;20119;-71
2022/08/09 12:01:06;;;;;;;1.90;1.48;;;;;;;;;;5038027;28;20388;-72
2022/08/09 12:03:32;;;;;;;4.07;1.48;;;;;;;;;;5040528;28;20059;-68
2022/08/09 12:06:00;;;;;;;2.58;1.35;;;;;;;;;;5040048;28;20037;-69
2022/08/09 12:08:27;;;;;;;2.13;1.33;;;;;;;;;;5036671;28;20045;-69
2022/08/09 12:10:55;;;;;;;4.90;1.52;;;;;;;;;;5037306;28;20041;-68
2022/08/09 12:13:27;;;;;;;1.42;1.33;;;;;;;;;;5040436;28;20071;-70
2022/08/09 12:16:03;;;;;;;3.00;1.42;;;;;;;;;;5039075;28;20056;-70
2022/08/09 12:18:30;;;;;;;1.73;1.20;;;;;;;;;;5039511;28;20113;-70
2022/08/09 12:20:55;;;;;;;2.28;1.33;;;;;;;;;;5039595;28;20087;-70
2022/08/09 12:23:21;;;;;;;3.08;1.30;;;;;;;;;;5039645;28;20120;-70
2022/08/09 12:25:49;;;;;;;4.13;1.40;;;;;;;;;;5039281;28;20053;-70
2022/08/09 12:28:17;;;;;;;2.65;1.40;;;;;;;;;;5038841;28;20148;-70
2022/08/09 12:30:43;;;;;;;4.45;1.50;;;;;;;;;;5038641;28;20057;-70
2022/08/09 12:33:10;;;;;;;3.15;1.33;;;;;;;;;;5039689;28;20173;-70
2022/08/09 12:35:36;;;;;;;1.52;1.20;;;;;;;;;;5039401;28;20381;-70
2022/08/09 12:38:24;;;;;;;1.60;1.50;;;;;;;;;;5039178;28;20047;-70
2022/08/09 12:40:51;;;;;;;6.38;1.20;;;;;;;;;;5037856;28;20128;-69
2022/08/09 12:43:21;;;;;;;2.80;1.35;;;;;;;;;;5039747;28;20040;-69
2022/08/09 12:45:47;;;;;;;2.30;1.58;;;;;;;;;;5039441;28;20045;-68
2022/08/09 12:48:14;;;;;;;3.25;1.33;;;;;;;;;;5038932;28;20041;-70
2022/08/09 12:50:40;;;;;;;2.30;1.33;;;;;;;;;;5036239;28;20059;-68
2022/08/09 12:53:32;;;;;;;3.40;1.60;;;;;;;;;;5052495;28;20037;-68
2022/08/09 12:56:11;;;;;;;3.45;1.20;;;;;;;;;;5036675;28;20426;-68
2022/08/09 12:58:38;;;;;;;3.35;1.40;;;;;;;;;;5037663;28;20111;-69
2022/08/09 13:01:18;;;;;;;3.45;1.50;;;;;;;;;;5037769;28;20044;-69
2022/08/09 13:03:54;;;;;;;3.67;1.50;;;;;;;;;;5037646;28;21038;-69
2022/08/09 13:06:24;;;;;;;2.08;1.30;;;;;;;;;;5037712;28;20041;-68
2022/08/09 13:08:58;;;;;;;2.35;1.15;;;;;;;;;;5038291;28;20049;-69
2022/08/09 13:11:29;;;;;;;1.42;1.30;;;;;;;;;;5036151;28;20080;-68
2022/08/09 13:13:56;;;;;;;6.45;1.40;;;;;;;;;;5038622;28;20052;-69
2022/08/09 13:16:22;;;;;;;1.88;1.25;;;;;;;;;;5037564;28;20574;-70
2022/08/09 13:18:49;;;;;;;1.33;1.08;;;;;;;;;;5038277;28;20047;-68
2022/08/09 13:21:25;;;;;;;1.73;1.10;;;;;;;;;;5037268;28;20115;-69
2022/08/09 13:24:07;;;;;;;1.73;1.08;;;;;;;;;;5038731;28;20076;-69
2022/08/09 13:26:41;;;;;;;2.03;1.20;;;;;;;;;;5037732;28;20087;-68
2022/08/09 13:29:15;;;;;;;6.80;1.40;;;;;;;;;;5037753;28;20060;-69
2022/08/09 13:31:54;;;;;;;1.15;1.00;;;;;;;;;;5037381;28;20147;-69
2022/08/09 13:34:20;;;;;;;1.23;1.13;;;;;;;;;;5035335;28;20044;-68
2022/08/09 13:36:46;;;;;;;4.82;1.27;;;;;;;;;;5037187;28;20495;-69
2022/08/09 13:39:13;;;;;;;4.75;1.20;;;;;;;;;;5035704;28;20056;-69
2022/08/09 13:41:38;;;;;;;1.98;1.48;;;;;;;;;;5035937;28;20049;-69
2022/08/09 13:44:04;;;;;;;14.20;1.48;;;;;;;;;;5039607;28;20037;-69
2022/08/09 13:46:29;;;;;;;4.22;1.08;;;;;;;;;;5040698;28;20044;-69
2022/08/09 13:48:54;;;;;;;3.47;1.35;;;;;;;;;;5040651;28;20079;-69
2022/08/09 13:51:20;;;;;;;2.63;1.17;;;;;;;;;;5041643;28;20080;-69
2022/08/09 13:53:45;;;;;;;4.65;1.38;;;;;;;;;;5041637;28;20096;-69
2022/08/09 13:56:11;;;;;;;1.55;0.93;;;;;;;;;;5041577;28;20049;-69
2022/08/09 13:58:36;;;;;;;1.38;1.10;;;;;;;;;;5041412;28;20037;-69
2022/08/09 14:01:01;;;;;;;3.95;1.25;;;;;;;;;;5040936;28;20916;-69
2022/08/09 14:03:27;;;;;;;2.28;1.00;;;;;;;;;;5041602;28;20934;-68
2022/08/09 14:05:53;;;;;;;2.72;0.95;;;;;;;;;;5040671;28;20139;-69
2022/08/09 14:08:18;;;;;;;3.25;0.95;;;;;;;;;;5040830;28;20049;-69
2022/08/09 14:10:46;;;;;;;1.02;0.88;;;;;;;;;;5040653;28;20508;-69
2022/08/09 14:13:11;;;;;;;5.40;1.17;;;;;;;;;;5040750;28;20075;-69
2022/08/09 14:15:37;;;;;;;4.00;0.88;;;;;;;;;;5040414;28;20064;-68
2022/08/09 14:18:03;;;;;;;4.22;0.93;;;;;;;;;;5040937;28;20056;-70
2022/08/09 14:20:29;;;;;;;2.35;1.17;;;;;;;;;;5040639;28;20048;-69
2022/08/09 14:22:54;;;;;;;2.42;0.90;;;;;;;;;;5039440;28;20055;-69
2022/08/09 14:25:20;;;;;;;2.50;0.90;;;;;;;;;;5041125;28;21544;-70
2022/08/09 14:27:45;;;;;;;1.63;0.80;;;;;;;;;;5040669;28;20159;-68
2022/08/09 14:30:11;;;;;;;5.13;0.88;;;;;;;;;;5040225;28;20080;-69
2022/08/09 14:32:36;;;;;;;4.82;0.93;;;;;;;;;;5040770;28;20045;-68
2022/08/09 14:35:02;;;;;;;2.78;1.73;;;;;;;;;;5040627;28;20056;-68
2022/08/09 14:37:28;;;;;;;4.63;0.90;;;;;;;;;;5040364;28;20054;-68
2022/08/09 14:39:53;;;;;;;3.28;0.80;;;;;;;;;;5041662;28;20675;-67
2022/08/09 14:42:20;;;;;;;2.55;0.95;;;;;;;;;;5040025;28;20053;-67
2022/08/09 14:44:47;;;;;;;2.75;0.90;;;;;;;;;;5039831;28;20053;-67
2022/08/09 14:47:13;;;;;;;3.08;1.10;;;;;;;;;;5040905;28;20059;-67
2022/08/09 14:49:39;;;;;;;0.88;0.88;;;;;;;;;;5039930;28;20502;-66